CCJ weather

La Concordia Airport
Ostuacan, Chiapas, Mexico

Public forecast

Using degrees Celsius for public forecast. Weather courtesy of forecast.io.

Closest aviation weather report (METAR) to La Concordia Airport

Closest report is Carlos Rovirosa Pérez International Airport, 42.3 nm (78.4 km) NE. Retrieved 2020/07/16 11:59 UTC (49 minutes ago):

MMVA 161159Z RTD 07006KT 6SM SCT200 25/22 A2995 RMK 6//// 8/008 HZY

Closest aviation forecast (TAF) to La Concordia Airport

Forecast is more than 6 hours old.

Closest forecast is Carlos Rovirosa Pérez International Airport, 42.3 nm (78.4 km) NE. Retrieved 2020/07/16 06:44 UTC (6 hours ago):

TAF MMVA 160436Z 1606/1706 08006KT P6SM SKC TEMPO 1610/1614 5SM HZ BKN015 FM161800 10010KT P6SM SCT020 PROB40 1700/1704 5SM RA VC TS BKN020CB BKN070